sensor_id;sensor_type;location;lat;lon;timestamp;pressure;altitude;pressure_sealevel;temperature;humidity
61761;BME280;47664;51.660;-0.100;2023-06-26T00:01:42;100841.86;;;18.79;44.38
61761;BME280;47664;51.660;-0.100;2023-06-26T00:04:09;100843.42;;;19.15;44.30
61761;BME280;47664;51.660;-0.100;2023-06-26T00:06:36;100846.09;;;18.79;45.15
61761;BME280;47664;51.660;-0.100;2023-06-26T00:09:03;100849.20;;;18.68;45.17
61761;BME280;47664;51.660;-0.100;2023-06-26T00:11:30;100850.25;;;19.34;44.47
61761;BME280;47664;51.660;-0.100;2023-06-26T00:13:57;100850.98;;;18.57;45.60
61761;BME280;47664;51.660;-0.100;2023-06-26T00:16:24;100855.74;;;18.33;46.18
61761;BME280;47664;51.660;-0.100;2023-06-26T00:18:51;100854.09;;;18.56;45.90
61761;BME280;47664;51.660;-0.100;2023-06-26T00:21:17;100857.62;;;18.89;45.02
61761;BME280;47664;51.660;-0.100;2023-06-26T00:23:44;100861.87;;;19.36;44.17
61761;BME280;47664;51.660;-0.100;2023-06-26T00:26:11;100861.13;;;19.02;44.42
61761;BME280;47664;51.660;-0.100;2023-06-26T00:28:38;100862.43;;;19.41;44.13
61761;BME280;47664;51.660;-0.100;2023-06-26T00:31:05;100862.62;;;19.25;43.98
61761;BME280;47664;51.660;-0.100;2023-06-26T00:33:32;100863.09;;;19.48;43.77
61761;BME280;47664;51.660;-0.100;2023-06-26T00:35:59;100867.09;;;19.49;43.75
61761;BME280;47664;51.660;-0.100;2023-06-26T00:38:26;100867.64;;;19.52;43.55
61761;BME280;47664;51.660;-0.100;2023-06-26T00:40:53;100867.39;;;19.04;44.22
61761;BME280;47664;51.660;-0.100;2023-06-26T00:43:21;100868.99;;;19.34;44.21
61761;BME280;47664;51.660;-0.100;2023-06-26T00:45:48;100870.77;;;18.98;44.76
61761;BME280;47664;51.660;-0.100;2023-06-26T00:48:15;100875.38;;;18.98;44.86
61761;BME280;47664;51.660;-0.100;2023-06-26T00:50:42;100878.09;;;18.21;46.47
61761;BME280;47664;51.660;-0.100;2023-06-26T00:53:09;100877.23;;;18.40;46.19
61761;BME280;47664;51.660;-0.100;2023-06-26T00:56:33;100881.06;;;18.87;46.34
61761;BME280;47664;51.660;-0.100;2023-06-26T00:59:01;100879.67;;;18.97;45.32
61761;BME280;47664;51.660;-0.100;2023-06-26T01:01:27;100880.52;;;18.72;45.16
61761;BME280;47664;51.660;-0.100;2023-06-26T01:03:54;100878.58;;;18.87;45.37
61761;BME280;47664;51.660;-0.100;2023-06-26T01:06:24;100881.49;;;18.90;45.11
61761;BME280;47664;51.660;-0.100;2023-06-26T01:08:54;100888.50;;;18.70;44.97
61761;BME280;47664;51.660;-0.100;2023-06-26T01:11:21;100893.52;;;18.66;45.67
61761;BME280;47664;51.660;-0.100;2023-06-26T01:13:49;100896.36;;;18.42;45.41
61761;BME280;47664;51.660;-0.100;2023-06-26T01:16:18;100904.79;;;18.12;45.83
61761;BME280;47664;51.660;-0.100;2023-06-26T01:18:46;100907.86;;;18.12;45.85
61761;BME280;47664;51.660;-0.100;2023-06-26T01:21:14;100905.97;;;18.04;46.77
61761;BME280;47664;51.660;-0.100;2023-06-26T01:23:53;100899.88;;;18.26;46.44
61761;BME280;47664;51.660;-0.100;2023-06-26T01:26:26;100903.67;;;17.87;47.21
61761;BME280;47664;51.660;-0.100;2023-06-26T01:28:54;100908.31;;;18.23;46.97
61761;BME280;47664;51.660;-0.100;2023-06-26T01:31:23;100909.20;;;18.30;47.16
61761;BME280;47664;51.660;-0.100;2023-06-26T01:33:51;100912.48;;;18.00;47.37
61761;BME280;47664;51.660;-0.100;2023-06-26T01:36:18;100919.13;;;18.09;47.22
61761;BME280;47664;51.660;-0.100;2023-06-26T01:38:46;100920.34;;;17.88;47.15
61761;BME280;47664;51.660;-0.100;2023-06-26T01:41:13;100923.05;;;18.35;47.47
61761;BME280;47664;51.660;-0.100;2023-06-26T01:43:48;100919.19;;;17.86;47.61
61761;BME280;47664;51.660;-0.100;2023-06-26T01:46:25;100923.45;;;17.68;47.71
61761;BME280;47664;51.660;-0.100;2023-06-26T01:48:59;100924.71;;;18.27;46.72
61761;BME280;47664;51.660;-0.100;2023-06-26T01:51:32;100931.50;;;18.19;46.62
61761;BME280;47664;51.660;-0.100;2023-06-26T01:54:02;100936.51;;;18.38;46.42
61761;BME280;47664;51.660;-0.100;2023-06-26T01:56:32;100939.85;;;18.36;46.44
61761;BME280;47664;51.660;-0.100;2023-06-26T01:58:59;100939.34;;;18.28;46.26
61761;BME280;47664;51.660;-0.100;2023-06-26T02:01:27;100938.11;;;18.49;46.15
61761;BME280;47664;51.660;-0.100;2023-06-26T02:03:54;100937.71;;;18.29;46.56
61761;BME280;47664;51.660;-0.100;2023-06-26T02:06:21;100934.81;;;18.33;46.48
61761;BME280;47664;51.660;-0.100;2023-06-26T02:08:48;100938.13;;;18.22;46.75
61761;BME280;47664;51.660;-0.100;2023-06-26T02:11:15;100938.33;;;18.03;47.11
61761;BME280;47664;51.660;-0.100;2023-06-26T02:13:42;100938.58;;;18.02;47.04
61761;BME280;47664;51.660;-0.100;2023-06-26T02:16:09;100939.42;;;17.95;46.87
61761;BME280;47664;51.660;-0.100;2023-06-26T02:18:35;100943.36;;;17.98;47.16
61761;BME280;47664;51.660;-0.100;2023-06-26T02:21:03;100942.14;;;18.06;47.01
61761;BME280;47664;51.660;-0.100;2023-06-26T02:23:31;100939.18;;;18.32;46.61
61761;BME280;47664;51.660;-0.100;2023-06-26T02:25:58;100942.07;;;18.61;46.13
61761;BME280;47664;51.660;-0.100;2023-06-26T02:28:25;100944.12;;;18.02;46.58
61761;BME280;47664;51.660;-0.100;2023-06-26T02:30:52;100942.71;;;18.25;46.84
61761;BME280;47664;51.660;-0.100;2023-06-26T02:33:19;100941.04;;;17.98;47.30
61761;BME280;47664;51.660;-0.100;2023-06-26T02:35:47;100938.39;;;18.57;46.75
61761;BME280;47664;51.660;-0.100;2023-06-26T02:38:14;100944.10;;;18.27;47.24
61761;BME280;47664;51.660;-0.100;2023-06-26T02:40:41;100948.82;;;18.25;47.07
61761;BME280;47664;51.660;-0.100;2023-06-26T02:43:08;100946.68;;;18.39;46.64
61761;BME280;47664;51.660;-0.100;2023-06-26T02:45:35;100951.94;;;18.09;46.83
61761;BME280;47664;51.660;-0.100;2023-06-26T02:48:02;100954.87;;;18.43;46.65
61761;BME280;47664;51.660;-0.100;2023-06-26T02:50:29;100959.16;;;18.28;46.91
61761;BME280;47664;51.660;-0.100;2023-06-26T02:52:56;100960.95;;;18.10;47.51
61761;BME280;47664;51.660;-0.100;2023-06-26T02:55:23;100962.84;;;18.09;47.25
61761;BME280;47664;51.660;-0.100;2023-06-26T02:57:50;100964.53;;;18.36;46.66
61761;BME280;47664;51.660;-0.100;2023-06-26T03:00:18;100965.29;;;18.43;46.49
61761;BME280;47664;51.660;-0.100;2023-06-26T03:02:45;100970.43;;;18.37;46.69
61761;BME280;47664;51.660;-0.100;2023-06-26T03:05:12;100970.76;;;18.74;46.13
61761;BME280;47664;51.660;-0.100;2023-06-26T03:07:40;100967.14;;;18.42;46.32
61761;BME280;47664;51.660;-0.100;2023-06-26T03:10:07;100970.41;;;18.53;46.21
61761;BME280;47664;51.660;-0.100;2023-06-26T03:12:34;100972.91;;;18.28;46.14
61761;BME280;47664;51.660;-0.100;2023-06-26T03:15:01;100972.96;;;18.52;46.13
61761;BME280;47664;51.660;-0.100;2023-06-26T03:17:28;100974.40;;;18.87;45.90
61761;BME280;47664;51.660;-0.100;2023-06-26T03:19:55;100982.33;;;18.21;46.97
61761;BME280;47664;51.660;-0.100;2023-06-26T03:22:22;100977.17;;;18.23;47.11
61761;BME280;47664;51.660;-0.100;2023-06-26T03:24:48;100980.06;;;17.92;47.51
61761;BME280;47664;51.660;-0.100;2023-06-26T03:27:15;100985.80;;;18.24;47.08
61761;BME280;47664;51.660;-0.100;2023-06-26T03:29:42;100986.71;;;18.26;46.93
61761;BME280;47664;51.660;-0.100;2023-06-26T03:32:09;100986.72;;;18.46;46.65
61761;BME280;47664;51.660;-0.100;2023-06-26T03:34:36;100988.20;;;18.15;47.26
61761;BME280;47664;51.660;-0.100;2023-06-26T03:37:03;100990.26;;;17.94;46.85
61761;BME280;47664;51.660;-0.100;2023-06-26T03:39:31;100988.07;;;18.22;46.98
61761;BME280;47664;51.660;-0.100;2023-06-26T03:41:58;100992.92;;;18.21;47.22
61761;BME280;47664;51.660;-0.100;2023-06-26T03:44:25;100991.76;;;17.88;47.39
61761;BME280;47664;51.660;-0.100;2023-06-26T03:46:53;100993.04;;;18.20;47.26
61761;BME280;47664;51.660;-0.100;2023-06-26T03:49:20;100991.84;;;18.04;47.36
61761;BME280;47664;51.660;-0.100;2023-06-26T03:51:48;100993.93;;;17.99;47.66
61761;BME280;47664;51.660;-0.100;2023-06-26T03:54:15;100994.76;;;17.95;47.80
61761;BME280;47664;51.660;-0.100;2023-06-26T03:56:42;100995.93;;;17.64;48.34
61761;BME280;47664;51.660;-0.100;2023-06-26T03:59:10;100994.92;;;17.42;48.66
61761;BME280;47664;51.660;-0.100;2023-06-26T04:01:38;100996.42;;;17.69;49.17
61761;BME280;47664;51.660;-0.100;2023-06-26T04:04:05;100998.75;;;17.34;49.59
61761;BME280;47664;51.660;-0.100;2023-06-26T04:06:32;101003.35;;;17.12;50.04
61761;BME280;47664;51.660;-0.100;2023-06-26T04:08:59;101003.09;;;17.44;49.84
61761;BME280;47664;51.660;-0.100;2023-06-26T04:11:27;101007.65;;;17.48;49.98
61761;BME280;47664;51.660;-0.100;2023-06-26T04:13:54;101009.14;;;17.50;50.03
61761;BME280;47664;51.660;-0.100;2023-06-26T04:16:22;101011.11;;;17.44;50.12
61761;BME280;47664;51.660;-0.100;2023-06-26T04:18:48;101017.89;;;17.19;50.20
61761;BME280;47664;51.660;-0.100;2023-06-26T04:21:15;101026.30;;;16.93;50.85
61761;BME280;47664;51.660;-0.100;2023-06-26T04:23:42;101027.01;;;16.79;51.26
61761;BME280;47664;51.660;-0.100;2023-06-26T04:26:09;101028.10;;;16.73;51.82
61761;BME280;47664;51.660;-0.100;2023-06-26T04:28:36;101018.61;;;17.41;50.85
61761;BME280;47664;51.660;-0.100;2023-06-26T04:31:03;101023.00;;;17.18;51.14
61761;BME280;47664;51.660;-0.100;2023-06-26T04:33:31;101015.19;;;17.01;51.58
61761;BME280;47664;51.660;-0.100;2023-06-26T04:35:58;101014.60;;;16.74;51.77
61761;BME280;47664;51.660;-0.100;2023-06-26T04:38:26;101020.78;;;16.54;52.60
61761;BME280;47664;51.660;-0.100;2023-06-26T04:40:53;101032.43;;;16.44;53.23
61761;BME280;47664;51.660;-0.100;2023-06-26T04:43:20;101030.98;;;16.76;52.86
61761;BME280;47664;51.660;-0.100;2023-06-26T04:45:47;101036.10;;;16.12;53.33
61761;BME280;47664;51.660;-0.100;2023-06-26T04:48:14;101036.99;;;16.76;53.41
61761;BME280;47664;51.660;-0.100;2023-06-26T04:50:41;101038.98;;;16.38;54.16
61761;BME280;47664;51.660;-0.100;2023-06-26T04:53:09;101039.37;;;16.79;53.39
61761;BME280;47664;51.660;-0.100;2023-06-26T04:55:36;101037.37;;;16.62;52.91
61761;BME280;47664;51.660;-0.100;2023-06-26T04:58:03;101040.97;;;16.51;53.16
61761;BME280;47664;51.660;-0.100;2023-06-26T05:00:30;101043.12;;;16.52;53.17
61761;BME280;47664;51.660;-0.100;2023-06-26T05:02:57;101042.25;;;16.26;54.14
61761;BME280;47664;51.660;-0.100;2023-06-26T05:05:24;101044.29;;;16.61;53.23
61761;BME280;47664;51.660;-0.100;2023-06-26T05:07:53;101045.91;;;16.74;53.20
61761;BME280;47664;51.660;-0.100;2023-06-26T05:10:20;101047.35;;;16.92;52.79
61761;BME280;47664;51.660;-0.100;2023-06-26T05:12:48;101052.64;;;17.07;52.88
61761;BME280;47664;51.660;-0.100;2023-06-26T05:15:15;101056.39;;;16.99;52.75
61761;BME280;47664;51.660;-0.100;2023-06-26T05:17:42;101058.94;;;17.13;53.02
61761;BME280;47664;51.660;-0.100;2023-06-26T05:20:10;101061.17;;;16.59;53.66
61761;BME280;47664;51.660;-0.100;2023-06-26T05:22:39;101066.59;;;16.65;53.44
61761;BME280;47664;51.660;-0.100;2023-06-26T05:25:09;101069.15;;;16.30;54.28
61761;BME280;47664;51.660;-0.100;2023-06-26T05:27:37;101072.36;;;16.36;54.85
61761;BME280;47664;51.660;-0.100;2023-06-26T05:30:05;101070.93;;;16.39;54.72
61761;BME280;47664;51.660;-0.100;2023-06-26T05:32:34;101071.96;;;16.58;54.54
61761;BME280;47664;51.660;-0.100;2023-06-26T05:35:02;101076.32;;;16.38;54.86
61761;BME280;47664;51.660;-0.100;2023-06-26T05:37:31;101081.46;;;16.83;54.44
61761;BME280;47664;51.660;-0.100;2023-06-26T05:39:58;101088.01;;;16.62;54.55
61761;BME280;47664;51.660;-0.100;2023-06-26T05:42:26;101091.71;;;16.92;54.00
61761;BME280;47664;51.660;-0.100;2023-06-26T05:44:53;101095.62;;;16.76;53.83
61761;BME280;47664;51.660;-0.100;2023-06-26T05:47:20;101100.09;;;16.74;54.83
61761;BME280;47664;51.660;-0.100;2023-06-26T05:49:47;101097.38;;;16.43;54.58
61761;BME280;47664;51.660;-0.100;2023-06-26T05:52:15;101105.09;;;16.74;54.07
61761;BME280;47664;51.660;-0.100;2023-06-26T05:54:43;101104.05;;;16.88;54.10
61761;BME280;47664;51.660;-0.100;2023-06-26T05:57:13;101095.64;;;17.13;53.32
61761;BME280;47664;51.660;-0.100;2023-06-26T05:59:40;101096.32;;;16.92;53.69
61761;BME280;47664;51.660;-0.100;2023-06-26T06:02:07;101098.02;;;16.82;53.93
61761;BME280;47664;51.660;-0.100;2023-06-26T06:04:34;101098.64;;;17.05;53.55
61761;BME280;47664;51.660;-0.100;2023-06-26T06:07:01;101098.53;;;16.85;53.58
61761;BME280;47664;51.660;-0.100;2023-06-26T06:09:28;101092.33;;;17.09;53.19
61761;BME280;47664;51.660;-0.100;2023-06-26T06:11:55;101096.82;;;16.81;53.63
61761;BME280;47664;51.660;-0.100;2023-06-26T06:14:22;101095.96;;;17.05;53.34
61761;BME280;47664;51.660;-0.100;2023-06-26T06:16:49;101095.13;;;16.77;53.07
61761;BME280;47664;51.660;-0.100;2023-06-26T06:19:16;101099.25;;;17.82;51.93
61761;BME280;47664;51.660;-0.100;2023-06-26T06:21:43;101104.03;;;17.73;51.98
61761;BME280;47664;51.660;-0.100;2023-06-26T06:24:10;101110.28;;;17.52;51.72
61761;BME280;47664;51.660;-0.100;2023-06-26T06:26:37;101108.52;;;17.72;51.58
61761;BME280;47664;51.660;-0.100;2023-06-26T06:29:04;101105.39;;;17.81;51.49
61761;BME280;47664;51.660;-0.100;2023-06-26T06:31:31;101108.71;;;17.75;51.47
61761;BME280;47664;51.660;-0.100;2023-06-26T06:33:58;101116.86;;;17.72;51.75
61761;BME280;47664;51.660;-0.100;2023-06-26T06:36:25;101122.92;;;17.89;50.89
61761;BME280;47664;51.660;-0.100;2023-06-26T06:38:52;101121.59;;;18.07;51.03
61761;BME280;47664;51.660;-0.100;2023-06-26T06:41:19;101124.37;;;17.91;51.17
61761;BME280;47664;51.660;-0.100;2023-06-26T06:43:47;101127.82;;;17.96;51.24
61761;BME280;47664;51.660;-0.100;2023-06-26T06:46:14;101133.27;;;18.08;50.73
61761;BME280;47664;51.660;-0.100;2023-06-26T06:48:56;101137.03;;;17.98;51.01
61761;BME280;47664;51.660;-0.100;2023-06-26T06:51:24;101137.45;;;17.87;51.32
61761;BME280;47664;51.660;-0.100;2023-06-26T06:53:50;101143.15;;;17.87;51.19
61761;BME280;47664;51.660;-0.100;2023-06-26T06:56:18;101147.10;;;17.97;51.12
61761;BME280;47664;51.660;-0.100;2023-06-26T06:58:44;101144.28;;;18.22;51.00
61761;BME280;47664;51.660;-0.100;2023-06-26T07:01:11;101146.60;;;18.21;50.34
61761;BME280;47664;51.660;-0.100;2023-06-26T07:03:38;101149.26;;;18.24;49.81
61761;BME280;47664;51.660;-0.100;2023-06-26T07:06:05;101141.46;;;18.55;49.29
61761;BME280;47664;51.660;-0.100;2023-06-26T07:08:33;101143.34;;;18.35;49.54
61761;BME280;47664;51.660;-0.100;2023-06-26T07:11:00;101148.17;;;18.40;49.23
61761;BME280;47664;51.660;-0.100;2023-06-26T07:13:27;101149.78;;;18.58;48.75
61761;BME280;47664;51.660;-0.100;2023-06-26T07:15:53;101149.47;;;18.69;47.91
61761;BME280;47664;51.660;-0.100;2023-06-26T07:18:20;101150.16;;;19.23;48.12
61761;BME280;47664;51.660;-0.100;2023-06-26T07:20:48;101156.11;;;18.33;47.91
61761;BME280;47664;51.660;-0.100;2023-06-26T07:23:15;101162.28;;;18.39;48.09
61761;BME280;47664;51.660;-0.100;2023-06-26T07:25:42;101158.02;;;18.38;47.64
61761;BME280;47664;51.660;-0.100;2023-06-26T07:28:10;101168.01;;;18.92;47.39
61761;BME280;47664;51.660;-0.100;2023-06-26T07:30:37;101166.49;;;18.82;47.16
61761;BME280;47664;51.660;-0.100;2023-06-26T07:33:04;101170.04;;;18.99;46.75
61761;BME280;47664;51.660;-0.100;2023-06-26T07:35:31;101173.43;;;19.42;45.46
61761;BME280;47664;51.660;-0.100;2023-06-26T07:37:58;101170.95;;;19.59;44.95
61761;BME280;47664;51.660;-0.100;2023-06-26T07:40:25;101174.05;;;20.16;44.70
61761;BME280;47664;51.660;-0.100;2023-06-26T07:42:53;101179.37;;;20.22;44.29
61761;BME280;47664;51.660;-0.100;2023-06-26T07:45:20;101181.37;;;19.75;44.81
61761;BME280;47664;51.660;-0.100;2023-06-26T07:47:48;101180.90;;;19.95;44.21
61761;BME280;47664;51.660;-0.100;2023-06-26T07:50:15;101185.22;;;19.34;44.46
61761;BME280;47664;51.660;-0.100;2023-06-26T07:52:42;101182.12;;;19.52;43.47
61761;BME280;47664;51.660;-0.100;2023-06-26T07:55:09;101176.06;;;19.90;43.94
61761;BME280;47664;51.660;-0.100;2023-06-26T07:57:36;101177.46;;;19.62;42.76
61761;BME280;47664;51.660;-0.100;2023-06-26T08:00:04;101178.80;;;19.78;43.22
61761;BME280;47664;51.660;-0.100;2023-06-26T08:02:31;101181.40;;;19.94;42.75
61761;BME280;47664;51.660;-0.100;2023-06-26T08:04:58;101185.82;;;20.20;42.28
61761;BME280;47664;51.660;-0.100;2023-06-26T08:07:25;101185.03;;;19.87;41.84
61761;BME280;47664;51.660;-0.100;2023-06-26T08:09:52;101181.53;;;20.27;41.22
61761;BME280;47664;51.660;-0.100;2023-06-26T08:12:19;101187.82;;;20.23;41.46
61761;BME280;47664;51.660;-0.100;2023-06-26T08:14:46;101185.28;;;20.28;41.81
61761;BME280;47664;51.660;-0.100;2023-06-26T08:17:14;101185.38;;;20.03;42.21
61761;BME280;47664;51.660;-0.100;2023-06-26T08:19:40;101192.21;;;20.06;41.87
61761;BME280;47664;51.660;-0.100;2023-06-26T08:22:07;101194.77;;;20.31;41.27
61761;BME280;47664;51.660;-0.100;2023-06-26T08:24:34;101201.65;;;20.41;41.55
61761;BME280;47664;51.660;-0.100;2023-06-26T08:27:01;101193.12;;;20.26;40.91
61761;BME280;47664;51.660;-0.100;2023-06-26T08:29:28;101194.92;;;20.61;40.36
61761;BME280;47664;51.660;-0.100;2023-06-26T08:31:55;101190.29;;;19.99;40.80
61761;BME280;47664;51.660;-0.100;2023-06-26T08:34:22;101197.55;;;19.93;41.66
61761;BME280;47664;51.660;-0.100;2023-06-26T08:36:48;101196.50;;;19.78;41.77
61761;BME280;47664;51.660;-0.100;2023-06-26T08:39:16;101198.24;;;20.02;41.08
61761;BME280;47664;51.660;-0.100;2023-06-26T08:41:43;101200.28;;;20.02;40.31
61761;BME280;47664;51.660;-0.100;2023-06-26T08:44:10;101206.07;;;19.98;40.82
61761;BME280;47664;51.660;-0.100;2023-06-26T08:46:37;101213.30;;;19.86;41.20
61761;BME280;47664;51.660;-0.100;2023-06-26T08:49:13;101211.79;;;19.97;39.99
61761;BME280;47664;51.660;-0.100;2023-06-26T08:51:45;101206.44;;;20.17;40.74
61761;BME280;47664;51.660;-0.100;2023-06-26T08:54:15;101209.93;;;19.76;41.32
61761;BME280;47664;51.660;-0.100;2023-06-26T08:56:45;101212.69;;;19.99;41.30
61761;BME280;47664;51.660;-0.100;2023-06-26T08:59:13;101217.90;;;19.83;41.61
61761;BME280;47664;51.660;-0.100;2023-06-26T09:01:41;101216.36;;;19.60;40.16
61761;BME280;47664;51.660;-0.100;2023-06-26T09:04:08;101219.05;;;19.65;38.97
61761;BME280;47664;51.660;-0.100;2023-06-26T09:06:35;101223.08;;;19.63;38.48
61761;BME280;47664;51.660;-0.100;2023-06-26T09:09:02;101222.48;;;19.92;37.59
61761;BME280;47664;51.660;-0.100;2023-06-26T09:11:29;101227.40;;;20.08;36.99
61761;BME280;47664;51.660;-0.100;2023-06-26T09:13:56;101223.62;;;20.08;37.23
61761;BME280;47664;51.660;-0.100;2023-06-26T09:16:24;101226.66;;;20.38;37.65
61761;BME280;47664;51.660;-0.100;2023-06-26T09:18:52;101231.53;;;20.19;37.60
61761;BME280;47664;51.660;-0.100;2023-06-26T09:21:19;101234.68;;;20.00;36.69
61761;BME280;47664;51.660;-0.100;2023-06-26T09:23:48;101231.96;;;19.98;37.02
61761;BME280;47664;51.660;-0.100;2023-06-26T09:26:16;101239.65;;;19.92;36.89
61761;BME280;47664;51.660;-0.100;2023-06-26T09:28:43;101240.02;;;20.29;36.15
61761;BME280;47664;51.660;-0.100;2023-06-26T09:31:10;101239.31;;;20.40;35.01
61761;BME280;47664;51.660;-0.100;2023-06-26T09:33:38;101236.63;;;20.34;35.26
61761;BME280;47664;51.660;-0.100;2023-06-26T09:36:06;101236.17;;;20.04;35.60
61761;BME280;47664;51.660;-0.100;2023-06-26T09:38:35;101238.76;;;20.18;35.40
61761;BME280;47664;51.660;-0.100;2023-06-26T09:41:03;101244.32;;;20.34;35.01
61761;BME280;47664;51.660;-0.100;2023-06-26T09:43:30;101241.71;;;19.54;34.95
61761;BME280;47664;51.660;-0.100;2023-06-26T09:45:57;101245.20;;;19.70;35.08
61761;BME280;47664;51.660;-0.100;2023-06-26T09:48:24;101243.91;;;19.59;35.28
61761;BME280;47664;51.660;-0.100;2023-06-26T09:50:51;101243.12;;;19.76;35.23
61761;BME280;47664;51.660;-0.100;2023-06-26T09:53:18;101244.76;;;20.21;35.80
61761;BME280;47664;51.660;-0.100;2023-06-26T09:55:47;101247.50;;;20.21;35.27
61761;BME280;47664;51.660;-0.100;2023-06-26T09:58:15;101242.84;;;20.88;35.22
61761;BME280;47664;51.660;-0.100;2023-06-26T10:00:44;101249.43;;;20.91;35.12
61761;BME280;47664;51.660;-0.100;2023-06-26T10:03:11;101248.36;;;20.78;35.03
61761;BME280;47664;51.660;-0.100;2023-06-26T10:05:39;101251.69;;;21.28;34.15
61761;BME280;47664;51.660;-0.100;2023-06-26T10:08:06;101249.43;;;22.03;33.33
61761;BME280;47664;51.660;-0.100;2023-06-26T10:10:36;101249.61;;;21.22;33.02
61761;BME280;47664;51.660;-0.100;2023-06-26T10:13:08;101251.32;;;21.41;32.84
61761;BME280;47664;51.660;-0.100;2023-06-26T10:15:40;101248.94;;;20.96;33.39
61761;BME280;47664;51.660;-0.100;2023-06-26T10:18:10;101252.55;;;21.30;33.14
61761;BME280;47664;51.660;-0.100;2023-06-26T10:20:38;101248.88;;;21.26;32.35
61761;BME280;47664;51.660;-0.100;2023-06-26T10:23:07;101249.91;;;21.09;33.13
61761;BME280;47664;51.660;-0.100;2023-06-26T10:25:37;101253.92;;;21.42;32.06
61761;BME280;47664;51.660;-0.100;2023-06-26T10:28:07;101259.17;;;21.92;31.34
61761;BME280;47664;51.660;-0.100;2023-06-26T10:30:36;101255.48;;;23.37;30.54
61761;BME280;47664;51.660;-0.100;2023-06-26T10:33:05;101249.72;;;23.63;30.07
61761;BME280;47664;51.660;-0.100;2023-06-26T10:35:32;101246.46;;;23.20;29.60
61761;BME280;47664;51.660;-0.100;2023-06-26T10:38:01;101259.73;;;22.90;30.04
61761;BME280;47664;51.660;-0.100;2023-06-26T10:40:40;101268.50;;;23.11;30.47
61761;BME280;47664;51.660;-0.100;2023-06-26T10:43:08;101269.95;;;23.59;28.83
61761;BME280;47664;51.660;-0.100;2023-06-26T10:45:36;101263.83;;;24.39;27.24
61761;BME280;47664;51.660;-0.100;2023-06-26T10:48:04;101268.11;;;23.97;28.07
61761;BME280;47664;51.660;-0.100;2023-06-26T10:50:32;101268.55;;;24.33;27.62
61761;BME280;47664;51.660;-0.100;2023-06-26T10:53:16;101267.01;;;23.95;28.54
61761;BME280;47664;51.660;-0.100;2023-06-26T10:55:50;101266.96;;;23.05;29.60
61761;BME280;47664;51.660;-0.100;2023-06-26T10:58:34;101269.88;;;23.39;28.93
61761;BME280;47664;51.660;-0.100;2023-06-26T11:01:22;101272.73;;;22.39;30.60
61761;BME280;47664;51.660;-0.100;2023-06-26T11:04:03;101268.86;;;21.93;30.71
61761;BME280;47664;51.660;-0.100;2023-06-26T11:06:31;101276.22;;;21.91;32.19
61761;BME280;47664;51.660;-0.100;2023-06-26T11:09:06;101279.32;;;21.75;32.40
61761;BME280;47664;51.660;-0.100;2023-06-26T11:12:06;101273.12;;;22.57;31.68
61761;BME280;47664;51.660;-0.100;2023-06-26T11:14:33;101265.55;;;22.21;32.23
61761;BME280;47664;51.660;-0.100;2023-06-26T11:17:03;101272.04;;;22.40;31.93
61761;BME280;47664;51.660;-0.100;2023-06-26T11:19:30;101274.54;;;22.38;31.87
61761;BME280;47664;51.660;-0.100;2023-06-26T11:21:59;101268.07;;;22.52;30.75
61761;BME280;47664;51.660;-0.100;2023-06-26T11:24:27;101271.75;;;22.58;31.20
61761;BME280;47664;51.660;-0.100;2023-06-26T11:27:00;101273.88;;;22.36;31.18
61761;BME280;47664;51.660;-0.100;2023-06-26T11:29:27;101274.69;;;22.85;31.15
61761;BME280;47664;51.660;-0.100;2023-06-26T11:32:00;101277.27;;;22.51;31.58
61761;BME280;47664;51.660;-0.100;2023-06-26T11:34:30;101285.12;;;22.79;30.82
61761;BME280;47664;51.660;-0.100;2023-06-26T11:36:57;101283.09;;;23.02;30.63
61761;BME280;47664;51.660;-0.100;2023-06-26T11:39:25;101285.54;;;22.54;31.77
61761;BME280;47664;51.660;-0.100;2023-06-26T11:41:51;101285.94;;;22.70;31.21
61761;BME280;47664;51.660;-0.100;2023-06-26T11:44:18;101287.32;;;23.16;31.00
61761;BME280;47664;51.660;-0.100;2023-06-26T11:46:45;101290.51;;;22.90;31.08
61761;BME280;47664;51.660;-0.100;2023-06-26T11:49:16;101287.35;;;23.47;30.45
61761;BME280;47664;51.660;-0.100;2023-06-26T11:51:43;101294.19;;;22.96;31.68
61761;BME280;47664;51.660;-0.100;2023-06-26T11:54:10;101300.86;;;23.16;30.53
61761;BME280;47664;51.660;-0.100;2023-06-26T11:56:37;101303.37;;;23.07;30.04
61761;BME280;47664;51.660;-0.100;2023-06-26T11:59:05;101304.93;;;22.98;29.99
61761;BME280;47664;51.660;-0.100;2023-06-26T12:01:34;101301.24;;;23.09;30.07
61761;BME280;47664;51.660;-0.100;2023-06-26T12:04:03;101313.18;;;22.68;30.13
61761;BME280;47664;51.660;-0.100;2023-06-26T12:06:32;101312.49;;;22.97;30.13
61761;BME280;47664;51.660;-0.100;2023-06-26T12:09:02;101315.43;;;22.47;29.83
61761;BME280;47664;51.660;-0.100;2023-06-26T12:11:29;101315.42;;;22.44;29.87
61761;BME280;47664;51.660;-0.100;2023-06-26T12:13:57;101315.89;;;22.49;29.78
61761;BME280;47664;51.660;-0.100;2023-06-26T12:16:24;101314.66;;;22.22;29.71
61761;BME280;47664;51.660;-0.100;2023-06-26T12:18:58;101316.80;;;22.35;29.88
61761;BME280;47664;51.660;-0.100;2023-06-26T12:21:44;101313.05;;;22.98;29.34
61761;BME280;47664;51.660;-0.100;2023-06-26T12:24:14;101319.70;;;22.82;29.32
61761;BME280;47664;51.660;-0.100;2023-06-26T12:26:42;101315.95;;;22.29;30.48
61761;BME280;47664;51.660;-0.100;2023-06-26T12:29:12;101324.01;;;22.77;29.85
61761;BME280;47664;51.660;-0.100;2023-06-26T12:31:41;101313.41;;;22.53;29.65
61761;BME280;47664;51.660;-0.100;2023-06-26T12:34:10;101314.24;;;22.40;29.73
61761;BME280;47664;51.660;-0.100;2023-06-26T12:36:42;101313.80;;;22.04;30.37
61761;BME280;47664;51.660;-0.100;2023-06-26T12:39:10;101310.66;;;22.61;29.72
61761;BME280;47664;51.660;-0.100;2023-06-26T12:41:45;101309.46;;;22.81;29.38
61761;BME280;47664;51.660;-0.100;2023-06-26T12:44:21;101301.00;;;23.00;28.88
61761;BME280;47664;51.660;-0.100;2023-06-26T12:46:50;101297.93;;;22.95;29.28